createdAt,value
2018-11-11T00:00:22.730Z,34.3
2018-11-11T00:01:14.172Z,34.6
2018-11-11T00:02:04.398Z,34.8
2018-11-11T00:02:53.071Z,35
2018-11-11T00:03:43.936Z,35.2
2018-11-11T00:04:33.336Z,35.4
2018-11-11T00:05:23.054Z,35.6
2018-11-11T00:06:12.749Z,35.7
2018-11-11T00:07:03.801Z,35.9
2018-11-11T00:25:12.330Z,30.1
2018-11-11T00:26:03.038Z,30.2
2018-11-11T00:26:52.053Z,30.2
2018-11-11T00:27:43.525Z,30.2
2018-11-11T00:28:34.305Z,30.1
2018-11-11T00:29:23.569Z,30
2018-11-11T00:30:12.493Z,29.9
2018-11-11T00:31:02.285Z,29.8
2018-11-11T00:31:51.892Z,29.7
2018-11-11T00:32:42.627Z,29.3
2018-11-11T00:33:33.516Z,29.3
2018-11-11T00:34:23.165Z,30.3
2018-11-11T00:35:14.234Z,31.2
2018-11-11T00:36:02.823Z,31.8
2018-11-11T00:36:52.969Z,32.3
2018-11-11T00:37:44.259Z,32.8
2018-11-11T00:38:33.354Z,33.2
2018-11-11T00:39:24.674Z,33.5
2018-11-11T00:40:12.159Z,33.9
2018-11-11T00:41:04.012Z,34.1
2018-11-11T00:41:54.725Z,34.4
2018-11-11T00:42:43.806Z,34.7
2018-11-11T00:43:33.472Z,34.9
2018-11-11T00:44:22.564Z,35.1
2018-11-11T00:45:14.422Z,35.3
2018-11-11T00:46:03.686Z,35.5
2018-11-11T00:46:53.069Z,35.6
2018-11-11T00:47:43.349Z,35.8
2018-11-11T00:48:32.236Z,35.9
2018-11-11T00:49:22.753Z,36.1
2018-11-11T00:50:13.791Z,36.2
2018-11-11T00:51:04.733Z,36.3
2018-11-11T00:51:53.776Z,36.4
2018-11-11T00:52:43.283Z,36.5
2018-11-11T00:53:34.238Z,36.6
2018-11-11T00:54:24.580Z,36.6
2018-11-11T00:55:14.411Z,35.4
2018-11-11T00:56:05.138Z,34.7
2018-11-11T00:56:55.031Z,34.1
2018-11-11T00:57:44.211Z,33.3
2018-11-11T00:58:35.418Z,32.6
2018-11-11T00:59:26.210Z,31.8
2018-11-11T01:00:14.641Z,31.1
2018-11-11T01:01:05.138Z,30.8
2018-11-11T01:01:54.956Z,30.4
2018-11-11T01:02:44.678Z,30.1
2018-11-11T01:03:35.224Z,29.9
2018-11-11T01:04:25.629Z,30
2018-11-11T01:05:14.667Z,30.2
2018-11-11T01:06:04.955Z,30.3
2018-11-11T01:06:54.478Z,30.3
2018-11-11T01:07:44.890Z,30.3
2018-11-11T01:08:35.277Z,30.3
2018-11-11T01:09:25.494Z,30.1
2018-11-11T01:10:15.708Z,30.1
2018-11-11T01:11:05.492Z,30
2018-11-11T01:11:54.940Z,29.8
2018-11-11T01:12:44.265Z,29.8
2018-11-11T01:13:35.340Z,29.6
2018-11-11T01:14:25.695Z,28.9
2018-11-11T01:15:15.995Z,29.6
2018-11-11T01:16:06.545Z,30.6
2018-11-11T01:16:56.322Z,31.4
2018-11-11T01:17:45.862Z,32
2018-11-11T01:18:36.507Z,32.5
2018-11-11T01:19:25.760Z,32.9
2018-11-11T01:20:16.469Z,33.3
2018-11-11T01:21:06.706Z,33.6
2018-11-11T01:21:56.602Z,33.9
2018-11-11T01:22:45.920Z,34.1
2018-11-11T01:23:36.044Z,34.4
2018-11-11T01:24:26.986Z,34.6
2018-11-11T01:25:17.360Z,34.8
2018-11-11T01:26:07.265Z,35
2018-11-11T01:26:57.666Z,35.1
2018-11-11T01:27:46.434Z,35.3
2018-11-11T01:28:36.556Z,35.4
2018-11-11T01:29:25.629Z,35.6
2018-11-11T01:30:16.272Z,35.7
2018-11-11T01:31:07.024Z,35.8
2018-11-11T01:31:56.801Z,35.9
2018-11-11T01:32:47.146Z,36
2018-11-11T01:33:35.172Z,36.1
2018-11-11T01:34:25.961Z,36.2
2018-11-11T01:35:15.664Z,36.3
2018-11-11T01:36:09.154Z,36.3
2018-11-11T01:36:57.061Z,36.4
2018-11-11T01:37:48.199Z,36.4
2018-11-11T01:38:36.357Z,36.5
2018-11-11T01:39:26.068Z,35.7
2018-11-11T01:40:17.459Z,34.9
2018-11-11T01:41:07.596Z,34.3
2018-11-11T01:41:57.301Z,33.6
2018-11-11T01:42:48.041Z,32.9
2018-11-11T01:43:36.910Z,32.1
2018-11-11T01:44:28.479Z,31.6
2018-11-11T01:45:17.647Z,31.1
2018-11-11T01:46:07.572Z,30.8
2018-11-11T01:46:58.628Z,30.6
2018-11-11T01:47:47.272Z,30.4
2018-11-11T01:48:37.638Z,30.2
2018-11-11T01:49:28.568Z,30.4
2018-11-11T01:50:18.395Z,30.4
2018-11-11T01:51:08.515Z,30.5
2018-11-11T01:51:58.996Z,30.4
2018-11-11T01:52:48.725Z,30.4
2018-11-11T01:53:38.032Z,30.3
2018-11-11T01:54:28.025Z,30.3
2018-11-11T01:55:17.996Z,30.1
2018-11-11T01:56:06.617Z,30
2018-11-11T01:56:57.375Z,29.9
2018-11-11T01:57:48.755Z,29.8
2018-11-11T01:58:37.880Z,29.6
2018-11-11T01:59:29.107Z,29.1
2018-11-11T02:00:17.302Z,29.6
2018-11-11T02:01:09.568Z,30.4
2018-11-11T02:01:58.112Z,31.3
2018-11-11T02:02:48.910Z,31.8
2018-11-11T02:03:38.163Z,32.3
2018-11-11T02:04:29.065Z,32.7
2018-11-11T02:05:18.131Z,33
2018-11-11T02:06:08.960Z,33.3
2018-11-11T02:06:59.879Z,33.6
2018-11-11T02:07:49.613Z,33.9
2018-11-11T02:08:39.749Z,34.1
2018-11-11T02:09:28.783Z,34.3
2018-11-11T02:10:19.257Z,34.6
2018-11-11T02:11:08.584Z,34.7
2018-11-11T02:12:00.222Z,34.9
2018-11-11T02:12:50.770Z,35
2018-11-11T02:13:40.251Z,35.1
2018-11-11T02:14:29.929Z,35.3
2018-11-11T02:15:20.366Z,34.8
2018-11-11T02:16:09.955Z,33.8
2018-11-11T02:16:59.911Z,31.6
2018-11-11T02:17:50.921Z,30.2
2018-11-11T02:18:40.156Z,28.8
2018-11-11T02:19:29.686Z,27.3
2018-11-11T02:20:20.388Z,25.7
2018-11-11T02:21:09.638Z,23.9
2018-11-11T02:22:00.651Z,22.9
2018-11-11T02:22:50.853Z,23.1
2018-11-11T02:23:42.036Z,24.2
2018-11-11T02:24:30.262Z,26.4
2018-11-11T02:25:20.526Z,28.4
2018-11-11T02:26:11.441Z,30
2018-11-11T02:27:02.012Z,31.1
2018-11-11T02:27:50.629Z,32
2018-11-11T02:28:40.541Z,32.6
2018-11-11T02:29:30.553Z,33.1
2018-11-11T02:30:21.300Z,33.6
2018-11-11T02:31:10.693Z,34.1
2018-11-11T02:32:01.069Z,34.4
2018-11-11T02:32:50.626Z,34.7
2018-11-11T02:33:41.485Z,35
2018-11-11T02:34:31.453Z,35.3
2018-11-11T02:35:20.659Z,35.5
2018-11-11T02:36:11.697Z,35.6
2018-11-11T02:37:00.410Z,35.8
2018-11-11T02:37:53.263Z,36
2018-11-11T02:38:40.468Z,36.2
2018-11-11T02:39:32.387Z,36.3
2018-11-11T02:40:21.855Z,36.4
2018-11-11T02:41:11.952Z,36.5
2018-11-11T02:42:01.539Z,36.6
2018-11-11T02:42:51.557Z,36
2018-11-11T02:43:42.447Z,35.1
2018-11-11T02:44:32.477Z,34.4
2018-11-11T02:45:22.860Z,33.8
2018-11-11T02:46:11.080Z,33
2018-11-11T02:47:02.190Z,32.3
2018-11-11T02:47:53.014Z,31.6
2018-11-11T02:48:42.569Z,31.1
2018-11-11T02:49:32.072Z,30.7
2018-11-11T02:50:21.915Z,30.4
2018-11-11T02:51:12.849Z,30.2
2018-11-11T02:52:02.642Z,30
2018-11-11T02:52:51.438Z,30.3
2018-11-11T02:53:42.113Z,30.4
2018-11-11T02:54:31.904Z,30.4
2018-11-11T02:55:22.807Z,30.4
2018-11-11T02:56:12.735Z,30.4
2018-11-11T02:57:02.405Z,30.3
2018-11-11T02:57:52.876Z,30.2
2018-11-11T02:58:42.697Z,30.1
2018-11-11T02:59:32.016Z,30
2018-11-11T03:00:22.476Z,29.9
2018-11-11T03:01:13.006Z,29.8
2018-11-11T03:02:02.761Z,29.6
2018-11-11T03:02:52.709Z,29
2018-11-11T03:03:43.564Z,29.9
2018-11-11T03:04:36.149Z,30.9
2018-11-11T03:05:23.481Z,31.7
2018-11-11T03:06:14.120Z,32.2
2018-11-11T03:07:04.024Z,32.7
2018-11-11T03:07:53.979Z,33.1
2018-11-11T03:08:42.636Z,33.4
2018-11-11T03:09:35.066Z,33.8
2018-11-11T03:10:24.713Z,34.1
2018-11-11T03:11:13.818Z,34.3
2018-11-11T03:12:04.519Z,34.6
2018-11-11T03:12:54.538Z,34.8
2018-11-11T03:13:44.693Z,35
2018-11-11T03:14:34.705Z,35.3
2018-11-11T03:15:24.918Z,35.4
2018-11-11T03:16:13.261Z,35.6
2018-11-11T03:17:05.380Z,35.8
2018-11-11T03:17:53.905Z,35.9
2018-11-11T03:18:44.861Z,36
2018-11-11T03:19:34.870Z,36.2
2018-11-11T03:20:26.045Z,36.3
2018-11-11T03:21:14.528Z,36.4
2018-11-11T03:22:04.702Z,36.4
2018-11-11T03:22:54.663Z,36.6
2018-11-11T03:23:45.173Z,36.2
2018-11-11T03:24:36.209Z,35.2
2018-11-11T03:25:25.163Z,34.6
2018-11-11T03:26:14.410Z,33.9
2018-11-11T03:27:04.735Z,33.2
2018-11-11T03:27:55.129Z,32.4
2018-11-11T03:28:44.800Z,31.8
2018-11-11T03:29:36.087Z,31.4
2018-11-11T03:30:25.925Z,31
2018-11-11T03:31:15.433Z,30.8
2018-11-11T03:32:06.372Z,30.5
2018-11-11T03:32:56.493Z,30.4
2018-11-11T03:33:45.292Z,30.6
2018-11-11T03:34:36.930Z,30.6
2018-11-11T03:35:24.936Z,30.6
2018-11-11T03:36:16.174Z,30.6
2018-11-11T03:37:06.752Z,30.6
2018-11-11T03:37:55.714Z,30.4
2018-11-11T03:38:44.703Z,30.4
2018-11-11T03:39:36.199Z,30.3
2018-11-11T03:40:26.134Z,30.1
2018-11-11T03:41:15.402Z,30
2018-11-11T03:42:05.962Z,29.9
2018-11-11T03:42:56.424Z,29.8
2018-11-11T03:43:45.941Z,29.1
2018-11-11T03:44:36.329Z,29.7
2018-11-11T03:45:25.407Z,30.6
2018-11-11T03:46:16.042Z,31.4
2018-11-11T03:47:07.340Z,32.1
2018-11-11T03:47:57.057Z,32.5
2018-11-11T03:48:46.384Z,32.9
2018-11-11T03:49:36.389Z,33.3
2018-11-11T03:50:27.178Z,33.6
2018-11-11T03:51:17.308Z,33.9
2018-11-11T03:52:06.741Z,34.3
2018-11-11T03:52:57.650Z,34.5
2018-11-11T03:53:47.175Z,34.7
2018-11-11T03:54:37.216Z,34.9
2018-11-11T03:55:27.846Z,35.1
2018-11-11T03:56:17.029Z,35.3
2018-11-11T03:57:08.470Z,35.4
2018-11-11T03:57:58.193Z,35.6
2018-11-11T03:58:49.198Z,35.7
2018-11-11T03:59:37.158Z,35.8
2018-11-11T04:00:28.669Z,35.9
2018-11-11T04:01:17.655Z,36
2018-11-11T04:02:06.719Z,36.1
2018-11-11T04:02:58.233Z,36.2
2018-11-11T04:03:48.405Z,36.3
2018-11-11T04:04:37.405Z,36.4
2018-11-11T04:05:26.723Z,36.4
2018-11-11T04:06:18.390Z,36.6
2018-11-11T04:07:08.505Z,35.9
2018-11-11T04:07:58.715Z,35.1
2018-11-11T04:08:46.679Z,34.4
2018-11-11T04:09:38.484Z,33.8
2018-11-11T04:10:30.860Z,33.1
2018-11-11T04:11:19.702Z,32.3
2018-11-11T04:12:08.489Z,31.8
2018-11-11T04:12:58.987Z,31.4
2018-11-11T04:13:49.112Z,31.2
2018-11-11T04:14:38.562Z,30.9
2018-11-11T04:15:29.737Z,30.8
2018-11-11T04:16:18.420Z,30.6
2018-11-11T04:17:08.737Z,30.7
2018-11-11T04:18:00.180Z,30.7
2018-11-11T04:18:49.294Z,30.7
2018-11-11T04:19:39.728Z,30.7
2018-11-11T04:20:29.711Z,30.6
2018-11-11T04:21:19.323Z,30.5
2018-11-11T04:22:10.274Z,30.4
2018-11-11T04:23:00.274Z,30.3
2018-11-11T04:23:49.844Z,30.2
2018-11-11T04:24:39.439Z,30.1
2018-11-11T04:25:30.087Z,29.9
2018-11-11T04:26:20.047Z,29.8
2018-11-11T04:27:10.081Z,29.3
2018-11-11T04:27:59.589Z,29.5
2018-11-11T04:28:50.362Z,30.4
2018-11-11T04:29:40.199Z,31.2
2018-11-11T04:30:30.388Z,31.9
2018-11-11T04:31:20.599Z,32.3
2018-11-11T04:32:10.696Z,32.8
2018-11-11T04:32:59.603Z,33.1
2018-11-11T04:33:50.496Z,33.4
2018-11-11T04:34:40.856Z,33.7
2018-11-11T04:35:31.524Z,33.9
2018-11-11T04:36:20.266Z,34.2
2018-11-11T04:54:24.241Z,36.3
2018-11-11T04:55:13.841Z,36.3
2018-11-11T04:56:04.658Z,36.4
2018-11-11T04:56:54.231Z,36.4
2018-11-11T04:57:45.110Z,36.3
2018-11-11T04:58:34.591Z,35.2
2018-11-11T04:59:24.091Z,34.6
2018-11-11T05:00:14.448Z,34
2018-11-11T05:01:03.591Z,33.3
2018-11-11T05:01:54.351Z,32.7
2018-11-11T05:02:43.432Z,32.2
2018-11-11T05:03:33.513Z,31.8
2018-11-11T05:04:25.023Z,31.5
2018-11-11T05:05:14.713Z,31.3
2018-11-11T05:06:03.330Z,31.1
2018-11-11T05:06:55.138Z,30.9
2018-11-11T05:07:45.200Z,30.9
2018-11-11T05:08:34.903Z,30.9
2018-11-11T05:09:25.091Z,30.9
2018-11-11T05:10:15.373Z,30.8
2018-11-11T05:11:03.935Z,30.8
2018-11-11T05:11:55.040Z,30.6
2018-11-11T05:12:44.014Z,30.6
2018-11-11T05:13:33.326Z,30.4
2018-11-11T05:14:24.928Z,30.3
2018-11-11T05:15:14.092Z,30.1
2018-11-11T05:16:04.275Z,30.1
2018-11-11T05:16:55.882Z,29.9
2018-11-11T05:17:44.607Z,29.8
2018-11-11T05:18:35.588Z,29
2018-11-11T05:19:24.729Z,29.7
2018-11-11T05:20:15.325Z,30.4
2018-11-11T05:21:06.132Z,31.2
2018-11-11T05:21:57.288Z,31.8
2018-11-11T05:22:45.065Z,32.2
2018-11-11T05:23:34.775Z,32.5
2018-11-11T05:24:25.857Z,32.8
2018-11-11T05:25:16.147Z,33
2018-11-11T05:26:05.945Z,33.3
2018-11-11T05:26:55.748Z,33.5
2018-11-11T05:27:46.071Z,33
2018-11-11T05:28:35.424Z,32.1
2018-11-11T05:29:24.913Z,30.3
2018-11-11T05:30:16.594Z,29
2018-11-11T05:31:06.139Z,27.6
2018-11-11T05:31:55.404Z,26.1
2018-11-11T05:32:45.666Z,24.6
2018-11-11T05:33:35.386Z,22.9
2018-11-11T05:34:26.828Z,21.6
2018-11-11T05:35:15.462Z,22
2018-11-11T05:36:06.259Z,22.7
2018-11-11T05:36:55.966Z,25.1
2018-11-11T05:37:45.884Z,27.1
2018-11-11T05:38:35.403Z,28.9
2018-11-11T05:39:24.091Z,30.4
2018-11-11T05:40:15.821Z,31.3
2018-11-11T05:41:06.456Z,32
2018-11-11T05:41:57.170Z,32.6
2018-11-11T05:42:46.373Z,33.1
2018-11-11T05:43:37.601Z,33.5
2018-11-11T05:44:26.718Z,33.9
2018-11-11T05:45:17.399Z,34.3
2018-11-11T05:46:07.136Z,34.6
2018-11-11T05:46:56.978Z,34.8
2018-11-11T05:47:47.033Z,35.1
2018-11-11T05:48:36.393Z,35.3
2018-11-11T05:49:27.153Z,35.5
2018-11-11T05:50:17.243Z,35.7
2018-11-11T05:51:08.898Z,35.9
2018-11-11T05:51:57.507Z,36
2018-11-11T05:52:48.425Z,36.1
2018-11-11T05:53:37.513Z,36.3
2018-11-11T05:54:26.125Z,36.3
2018-11-11T05:55:18.965Z,36.4
2018-11-11T05:56:08.182Z,36.6
2018-11-11T05:56:57.265Z,36.6
2018-11-11T05:57:48.312Z,35.8
2018-11-11T05:58:38.327Z,35
2018-11-11T05:59:27.373Z,34.4
2018-11-11T06:00:18.447Z,33.7
2018-11-11T06:01:07.615Z,32.9
2018-11-11T06:01:57.428Z,32.3
2018-11-11T06:02:47.489Z,31.8
2018-11-11T06:03:37.377Z,31.3
2018-11-11T06:04:28.562Z,31
2018-11-11T06:05:16.930Z,30.8
2018-11-11T06:06:07.895Z,30.6
2018-11-11T06:06:56.115Z,30.6
2018-11-11T06:07:47.444Z,30.7
2018-11-11T06:08:39.399Z,30.7
2018-11-11T06:09:29.359Z,30.7
2018-11-11T06:10:19.238Z,30.6
2018-11-11T06:11:09.301Z,30.6
2018-11-11T06:11:59.544Z,30.4
2018-11-11T06:12:47.349Z,30.4
2018-11-11T06:13:39.109Z,30.3
2018-11-11T06:14:29.064Z,30.1
2018-11-11T06:15:19.434Z,29.9
2018-11-11T06:16:08.364Z,29.8
2018-11-11T06:17:00.512Z,29.4
2018-11-11T06:17:49.699Z,29.5
2018-11-11T06:18:40.566Z,30.4
2018-11-11T06:19:29.421Z,31.1
2018-11-11T06:20:19.438Z,31.8
2018-11-11T06:21:08.879Z,32.3
2018-11-11T06:22:00.944Z,32.8
2018-11-11T06:22:50.133Z,33.3
2018-11-11T06:23:39.949Z,33.6
2018-11-11T06:24:29.561Z,34
2018-11-11T06:25:20.870Z,34.3
2018-11-11T06:26:10.928Z,34.6
2018-11-11T06:27:00.373Z,34.9
2018-11-11T06:27:49.831Z,35.2
2018-11-11T06:28:39.919Z,35.4
2018-11-11T06:29:30.846Z,35.6
2018-11-11T06:30:20.316Z,35.8
2018-11-11T06:31:10.483Z,36
2018-11-11T06:32:01.473Z,36.1
2018-11-11T06:32:50.176Z,36.3
2018-11-11T06:33:40.828Z,36.4
2018-11-11T06:34:30.744Z,36.6
2018-11-11T06:35:20.452Z,36.6
2018-11-11T06:36:11.311Z,35.9
2018-11-11T06:37:00.835Z,35.1
2018-11-11T06:37:50.006Z,34.4
2018-11-11T06:38:40.972Z,33.8
2018-11-11T06:39:30.215Z,33.1
2018-11-11T06:40:19.551Z,32.3
2018-11-11T06:41:10.277Z,31.6
2018-11-11T06:42:00.612Z,31
2018-11-11T06:42:51.181Z,30.6
2018-11-11T06:43:39.980Z,30.1
2018-11-11T06:44:30.852Z,29.8
2018-11-11T06:45:20.029Z,29.7
2018-11-11T06:46:10.210Z,29.6
2018-11-11T06:47:01.510Z,29.4
2018-11-11T06:47:51.919Z,29.3
2018-11-11T06:48:41.600Z,29.2
2018-11-11T06:49:30.315Z,29.1
2018-11-11T06:50:22.224Z,29
2018-11-11T06:51:11.804Z,28.9
2018-11-11T06:52:02.412Z,28.8
2018-11-11T06:52:51.415Z,28.7
2018-11-11T06:53:40.972Z,28.6
2018-11-11T06:54:31.885Z,28.4
2018-11-11T06:55:21.359Z,28.4
2018-11-11T06:56:11.619Z,28.3
2018-11-11T06:57:00.639Z,28.2
2018-11-11T06:57:51.232Z,28.1
2018-11-11T06:58:42.074Z,28
2018-11-11T06:59:30.819Z,27.9
2018-11-11T07:01:10.509Z,27.8
2018-11-11T07:02:01.114Z,27.6
2018-11-11T07:02:52.386Z,27.5
2018-11-11T07:03:41.109Z,27.4
2018-11-11T07:04:32.566Z,27.4
2018-11-11T07:05:21.267Z,27.3
2018-11-11T07:06:11.526Z,27.2
2018-11-11T07:07:03.378Z,27.1
2018-11-11T07:07:53.696Z,26.9
2018-11-11T07:08:42.943Z,26.9
2018-11-11T07:09:33.824Z,26.8
2018-11-11T07:10:22.998Z,26.7
2018-11-11T07:11:12.853Z,26.6
2018-11-11T07:12:02.788Z,26.5
2018-11-11T07:12:53.806Z,26.4
2018-11-11T07:13:43.201Z,26.3
2018-11-11T07:14:32.805Z,26.3
2018-11-11T07:15:22.781Z,26.2
2018-11-11T07:16:12.381Z,26.1
2018-11-11T07:17:03.713Z,26
2018-11-11T07:17:53.720Z,25.9
2018-11-11T07:18:43.193Z,25.9
2018-11-11T07:19:32.308Z,25.8
2018-11-11T07:20:23.762Z,25.7
2018-11-11T07:21:13.928Z,25.6
2018-11-11T07:22:04.555Z,25.6
2018-11-11T07:22:55.315Z,25.5
2018-11-11T07:23:45.051Z,25.4
2018-11-11T07:24:34.457Z,25.4
2018-11-11T07:25:23.955Z,25.3
2018-11-11T07:26:12.543Z,25.3
2018-11-11T07:27:04.700Z,25.2
2018-11-11T07:27:54.075Z,25.1
2018-11-11T07:28:44.389Z,25.1
2018-11-11T07:29:35.042Z,25
2018-11-11T07:30:24.773Z,24.9
2018-11-11T07:31:14.481Z,24.9
2018-11-11T07:32:04.110Z,24.8
2018-11-11T07:32:54.286Z,24.8
2018-11-11T07:33:44.847Z,24.7
2018-11-11T07:34:34.924Z,24.6
2018-11-11T07:35:24.658Z,24.6
2018-11-11T07:36:16.103Z,24.6
2018-11-11T07:37:05.064Z,24.5
2018-11-11T07:37:55.894Z,24.4
2018-11-11T07:38:45.317Z,24.4
2018-11-11T07:39:34.399Z,24.3
2018-11-11T07:40:25.206Z,24.3
2018-11-11T07:41:15.660Z,24.3
2018-11-11T07:42:05.999Z,24.3
2018-11-11T07:42:55.393Z,24.1
2018-11-11T07:43:45.703Z,24.1
2018-11-11T07:44:36.543Z,24.1
2018-11-11T07:45:26.239Z,24.1
2018-11-11T07:46:15.715Z,24
2018-11-11T07:47:05.981Z,23.9
2018-11-11T07:47:57.752Z,23.9
2018-11-11T07:48:46.591Z,23.9
2018-11-11T07:49:35.121Z,23.8
2018-11-11T07:50:26.480Z,23.8
2018-11-11T07:51:15.716Z,23.8
2018-11-11T07:52:07.202Z,23.8
2018-11-11T07:52:55.865Z,23.7
2018-11-11T07:53:45.656Z,23.7
2018-11-11T07:54:35.617Z,23.6
2018-11-11T07:55:25.441Z,23.6
2018-11-11T07:56:16.801Z,23.6
2018-11-11T07:57:05.217Z,23.5
2018-11-11T07:57:55.990Z,23.5
2018-11-11T07:58:45.450Z,23.4
2018-11-11T07:59:36.960Z,23.4
2018-11-11T08:00:25.670Z,23.4
2018-11-11T08:01:16.400Z,23.4
2018-11-11T08:02:07.327Z,23.3
2018-11-11T08:02:56.866Z,23.3
2018-11-11T08:03:46.141Z,23.3
2018-11-11T08:04:37.605Z,23.3
2018-11-11T08:05:25.762Z,23.3
2018-11-11T08:06:17.247Z,23.2
2018-11-11T08:07:07.226Z,23.2
2018-11-11T08:07:57.330Z,23.1
2018-11-11T08:08:46.700Z,23.1
2018-11-11T08:09:36.739Z,23.1
2018-11-11T08:10:27.990Z,23.1
2018-11-11T08:11:19.648Z,23.1
2018-11-11T08:12:07.126Z,23
2018-11-11T08:12:57.742Z,23
2018-11-11T08:13:47.702Z,22.9
2018-11-11T08:14:38.087Z,22.9
2018-11-11T08:15:26.549Z,22.9
2018-11-11T08:16:17.239Z,22.9
2018-11-11T08:17:08.382Z,22.9
2018-11-11T08:17:58.182Z,22.8
2018-11-11T08:18:47.561Z,22.8
2018-11-11T08:19:37.287Z,22.8
2018-11-11T08:20:28.417Z,22.8
2018-11-11T08:21:18.622Z,22.8
2018-11-11T08:22:08.886Z,22.8
2018-11-11T08:22:57.879Z,22.8
2018-11-11T08:23:48.041Z,22.7
2018-11-11T08:24:37.666Z,22.7
2018-11-11T08:25:29.611Z,22.7
2018-11-11T08:26:17.841Z,22.7
2018-11-11T08:27:07.988Z,22.6
2018-11-11T08:27:58.018Z,22.6
2018-11-11T08:28:48.146Z,22.6
2018-11-11T08:29:38.321Z,22.6
2018-11-11T08:30:28.094Z,22.6
2018-11-11T08:31:18.331Z,22.6
2018-11-11T08:32:09.526Z,22.6
2018-11-11T08:32:59.544Z,22.6
2018-11-11T08:33:48.012Z,22.5
2018-11-11T08:34:38.833Z,22.5
2018-11-11T08:35:28.643Z,22.4
2018-11-11T08:36:19.308Z,22.4
2018-11-11T08:37:09.544Z,22.4
2018-11-11T08:37:58.572Z,22.4
2018-11-11T08:38:50.126Z,22.4
2018-11-11T08:39:40.098Z,22.4
2018-11-11T08:40:29.677Z,22.4
2018-11-11T08:41:18.231Z,22.4
2018-11-11T08:42:09.935Z,22.3
2018-11-11T08:42:59.060Z,22.3
2018-11-11T08:43:48.855Z,22.3
2018-11-11T08:44:39.068Z,22.3
2018-11-11T08:45:29.731Z,22.3
2018-11-11T08:46:19.912Z,22.3
2018-11-11T08:47:08.920Z,22.3
2018-11-11T08:48:01.162Z,22.3
2018-11-11T08:48:50.414Z,22.3
2018-11-11T08:49:40.911Z,22.3
2018-11-11T08:50:29.653Z,22.2
2018-11-11T08:51:20.372Z,22.3
2018-11-11T08:52:11.015Z,22.2
2018-11-11T09:08:51.639Z,22
2018-11-11T09:09:39.576Z,21.9
2018-11-11T09:10:32.107Z,21.9
2018-11-11T09:11:23.350Z,21.9
2018-11-11T09:12:11.241Z,21.9
2018-11-11T09:13:00.049Z,21.9
2018-11-11T09:13:51.638Z,21.9
2018-11-11T09:14:41.848Z,21.9
2018-11-11T09:15:30.131Z,21.9
2018-11-11T09:16:21.843Z,21.9
2018-11-11T09:17:12.414Z,21.9
2018-11-11T09:18:02.116Z,21.9
2018-11-11T09:18:52.109Z,21.9
2018-11-11T09:19:41.635Z,21.9
2018-11-11T09:20:31.589Z,21.9
2018-11-11T09:21:23.430Z,21.9
2018-11-11T09:22:12.701Z,21.9
2018-11-11T09:23:01.888Z,21.9
2018-11-11T09:23:51.971Z,21.9
2018-11-11T09:24:41.868Z,21.9
2018-11-11T09:25:32.770Z,21.9
2018-11-11T09:26:21.505Z,21.9
2018-11-11T09:27:13.130Z,21.8
2018-11-11T09:28:01.788Z,21.8
2018-11-11T09:28:52.815Z,21.8
2018-11-11T09:29:46.565Z,21.8
2018-11-11T09:30:35.731Z,21.8
2018-11-11T09:31:23.008Z,21.8
2018-11-11T09:32:11.810Z,21.8
2018-11-11T09:33:02.359Z,21.8
2018-11-11T09:33:51.857Z,21.8
2018-11-11T09:34:42.214Z,21.8
2018-11-11T09:35:34.832Z,21.8
2018-11-11T09:36:23.010Z,21.8
2018-11-11T09:37:12.684Z,21.8
2018-11-11T09:38:03.602Z,21.8
2018-11-11T09:38:53.513Z,21.8
2018-11-11T09:39:44.067Z,21.8
2018-11-11T09:40:32.884Z,21.8
2018-11-11T09:41:24.060Z,21.8
2018-11-11T09:42:12.754Z,21.8
2018-11-11T09:43:02.999Z,21.7
2018-11-11T09:43:54.357Z,21.8
2018-11-11T09:44:42.469Z,21.7
2018-11-11T09:45:34.728Z,21.7
2018-11-11T09:46:25.309Z,21.7
2018-11-11T09:47:13.399Z,21.7
2018-11-11T09:48:05.329Z,21.7
2018-11-11T09:48:53.794Z,21.7
2018-11-11T09:49:44.154Z,21.7
2018-11-11T09:50:35.242Z,21.7
2018-11-11T09:51:23.644Z,21.7
2018-11-11T09:52:13.811Z,21.7
2018-11-11T09:53:03.926Z,21.6
2018-11-11T09:53:54.953Z,21.6
2018-11-11T09:54:44.305Z,21.7
2018-11-11T09:55:33.223Z,21.7
2018-11-11T09:56:25.506Z,21.6
2018-11-11T09:57:15.046Z,21.6
2018-11-11T09:58:03.900Z,21.6
2018-11-11T09:58:56.579Z,21.6
2018-11-11T09:59:47.562Z,21.6
2018-11-11T10:00:35.533Z,21.6
2018-11-11T10:01:25.134Z,21.6
2018-11-11T10:02:13.415Z,21.6
2018-11-11T10:03:05.466Z,21.6
2018-11-11T10:03:55.199Z,21.6
2018-11-11T10:04:45.013Z,21.6
2018-11-11T10:05:34.912Z,21.6
2018-11-11T10:06:26.339Z,21.7
2018-11-11T10:07:16.403Z,21.7
2018-11-11T10:08:04.505Z,21.6
2018-11-11T10:08:53.821Z,21.6
2018-11-11T10:09:44.836Z,21.7
2018-11-11T10:10:35.011Z,21.7
2018-11-11T10:11:26.856Z,21.7
2018-11-11T10:12:16.046Z,21.7
2018-11-11T10:13:04.724Z,21.7
2018-11-11T10:13:54.721Z,21.7
2018-11-11T10:14:45.509Z,21.7
2018-11-11T10:15:35.067Z,21.7
2018-11-11T10:16:25.841Z,21.6
2018-11-11T10:17:16.166Z,21.7
2018-11-11T10:18:06.001Z,21.7
2018-11-11T10:18:55.521Z,21.7
2018-11-11T10:19:46.289Z,21.7
2018-11-11T10:20:37.516Z,21.7
2018-11-11T10:21:27.304Z,21.7
2018-11-11T10:22:16.276Z,21.6
2018-11-11T10:23:05.455Z,21.7
2018-11-11T10:23:56.263Z,21.7
2018-11-11T10:24:44.779Z,21.7
2018-11-11T10:25:36.227Z,21.7
2018-11-11T10:26:28.135Z,21.7
2018-11-11T10:27:17.141Z,21.7
2018-11-11T10:28:07.009Z,21.7
2018-11-11T10:28:57.123Z,21.7
2018-11-11T10:29:45.838Z,21.7
2018-11-11T10:30:36.570Z,21.7
2018-11-11T10:31:26.326Z,21.7
2018-11-11T10:32:16.196Z,21.7
2018-11-11T10:33:07.774Z,21.7
2018-11-11T10:33:56.558Z,21.7
2018-11-11T10:34:47.125Z,21.7
2018-11-11T10:35:38.513Z,21.7
2018-11-11T10:36:27.473Z,21.7
2018-11-11T10:37:18.079Z,21.7
2018-11-11T10:38:07.818Z,21.7
2018-11-11T10:38:56.455Z,21.7
2018-11-11T10:39:48.837Z,21.7
2018-11-11T10:40:37.909Z,21.8
2018-11-11T10:41:26.389Z,21.7
2018-11-11T10:42:17.171Z,21.7
2018-11-11T10:43:06.395Z,21.7
2018-11-11T10:43:58.080Z,21.7
2018-11-11T10:44:47.268Z,21.7
2018-11-11T10:45:37.300Z,21.7
2018-11-11T10:46:27.340Z,21.6
2018-11-11T10:47:18.767Z,21.8
2018-11-11T10:48:08.393Z,21.7
2018-11-11T10:48:58.927Z,21.7
2018-11-11T10:49:49.072Z,21.7
2018-11-11T10:50:37.528Z,21.7
2018-11-11T10:51:28.917Z,21.7
2018-11-11T10:52:18.007Z,21.8
2018-11-11T10:53:08.102Z,21.7
2018-11-11T10:53:58.044Z,21.8
2018-11-11T10:54:49.722Z,21.8
2018-11-11T10:55:38.909Z,21.7
2018-11-11T10:56:27.544Z,21.8
2018-11-11T10:57:18.168Z,21.8
2018-11-11T10:58:08.301Z,21.8
2018-11-11T10:58:58.681Z,21.8
2018-11-11T10:59:48.747Z,21.7
2018-11-11T11:00:37.867Z,21.7
2018-11-11T11:01:28.643Z,21.7
2018-11-11T11:02:19.909Z,21.7
2018-11-11T11:03:09.389Z,21.7
2018-11-11T11:03:58.681Z,21.7
2018-11-11T11:04:48.519Z,21.8
2018-11-11T11:05:40.188Z,21.7
2018-11-11T11:06:30.421Z,21.8
2018-11-11T11:07:20.446Z,21.8
2018-11-11T11:08:10.276Z,21.7
2018-11-11T11:08:59.088Z,21.7
2018-11-11T11:09:49.388Z,21.7
2018-11-11T11:10:40.297Z,21.6
2018-11-11T11:11:29.392Z,21.7
2018-11-11T11:12:20.636Z,21.7
2018-11-11T11:13:11.910Z,21.7
2018-11-11T11:14:01.750Z,21.6
2018-11-11T11:14:51.071Z,21.7
2018-11-11T11:15:39.660Z,21.6
2018-11-11T11:16:29.776Z,21.6
2018-11-11T11:17:20.651Z,21.6
2018-11-11T11:18:09.615Z,21.6
2018-11-11T11:19:00.505Z,21.6
2018-11-11T11:19:51.174Z,21.6
2018-11-11T11:20:40.238Z,21.6
2018-11-11T11:21:30.505Z,21.6
2018-11-11T11:22:21.583Z,21.6
2018-11-11T11:23:12.448Z,21.6
2018-11-11T11:23:59.667Z,21.6
2018-11-11T11:24:49.770Z,21.6
2018-11-11T11:25:40.734Z,21.5
2018-11-11T11:26:30.495Z,21.6
2018-11-11T11:27:22.152Z,21.5
2018-11-11T11:28:10.695Z,21.5
2018-11-11T11:29:01.838Z,21.5
2018-11-11T11:29:51.580Z,21.5
2018-11-11T11:30:41.655Z,21.4
2018-11-11T11:31:33.015Z,21.5
2018-11-11T11:32:22.988Z,21.4
2018-11-11T11:33:11.002Z,21.4
2018-11-11T11:34:02.807Z,21.4
2018-11-11T11:34:52.487Z,21.4
2018-11-11T11:35:44.393Z,21.4
2018-11-11T11:36:31.262Z,21.4
2018-11-11T11:37:23.274Z,21.4
2018-11-11T11:38:13.077Z,21.4
2018-11-11T11:39:03.079Z,21.4
2018-11-11T11:39:52.568Z,21.4
2018-11-11T11:40:42.282Z,21.4
2018-11-11T11:41:33.199Z,21.4
2018-11-11T11:42:23.009Z,21.3
2018-11-11T11:43:11.956Z,21.3
2018-11-11T11:44:02.559Z,21.3
2018-11-11T11:44:51.928Z,21.4
2018-11-11T11:45:42.774Z,21.3
2018-11-11T11:46:32.273Z,21.3
2018-11-11T11:47:24.982Z,21.3
2018-11-11T11:48:14.000Z,21.3
2018-11-11T11:49:02.689Z,21.3
2018-11-11T11:49:52.697Z,21.3
2018-11-11T11:50:43.186Z,21.3
2018-11-11T11:51:33.076Z,21.3
2018-11-11T11:52:25.596Z,21.3
2018-11-11T11:53:14.866Z,21.3
2018-11-11T11:54:02.793Z,21.3
2018-11-11T11:54:53.244Z,21.3
2018-11-11T11:55:42.826Z,21.3
2018-11-11T11:56:34.073Z,21.3
2018-11-11T11:57:24.208Z,21.3
2018-11-11T11:58:13.063Z,21.3
2018-11-11T11:59:03.276Z,21.3
2018-11-11T11:59:53.316Z,21.3